sensor_id;sensor_type;location;lat;lon;timestamp;pressure;altitude;pressure_sealevel;temperature;humidity
76553;BME280;65395;53.168;18.156;2023-02-23T00:01:25;101428.89;;;-1.32;67.18
76553;BME280;65395;53.168;18.156;2023-02-23T00:03:54;101429.55;;;-1.33;67.20
76553;BME280;65395;53.168;18.156;2023-02-23T00:06:24;101426.25;;;-1.33;67.26
76553;BME280;65395;53.168;18.156;2023-02-23T00:08:52;101427.14;;;-1.32;67.51
76553;BME280;65395;53.168;18.156;2023-02-23T00:11:19;101424.93;;;-1.28;67.51
76553;BME280;65395;53.168;18.156;2023-02-23T00:13:48;101428.63;;;-1.24;67.51
76553;BME280;65395;53.168;18.156;2023-02-23T00:16:20;101429.03;;;-1.22;67.50
76553;BME280;65395;53.168;18.156;2023-02-23T00:18:51;101429.17;;;-1.21;67.59
76553;BME280;65395;53.168;18.156;2023-02-23T00:21:23;101426.46;;;-1.20;67.49
76553;BME280;65395;53.168;18.156;2023-02-23T00:23:53;101424.66;;;-1.22;67.53
76553;BME280;65395;53.168;18.156;2023-02-23T00:26:24;101425.13;;;-1.23;67.71
76553;BME280;65395;53.168;18.156;2023-02-23T00:28:52;101426.27;;;-1.25;67.82
76553;BME280;65395;53.168;18.156;2023-02-23T00:31:21;101423.53;;;-1.28;67.84
76553;BME280;65395;53.168;18.156;2023-02-23T00:33:54;101422.72;;;-1.31;67.90
76553;BME280;65395;53.168;18.156;2023-02-23T00:36:24;101421.83;;;-1.34;68.08
76553;BME280;65395;53.168;18.156;2023-02-23T00:38:53;101419.58;;;-1.36;68.19
76553;BME280;65395;53.168;18.156;2023-02-23T00:41:20;101417.08;;;-1.41;68.26
76553;BME280;65395;53.168;18.156;2023-02-23T00:43:55;101418.91;;;-1.46;68.40
76553;BME280;65395;53.168;18.156;2023-02-23T00:46:25;101415.98;;;-1.50;68.52
76553;BME280;65395;53.168;18.156;2023-02-23T00:48:55;101413.55;;;-1.55;68.77
76553;BME280;65395;53.168;18.156;2023-02-23T00:51:23;101415.20;;;-1.57;68.76
76553;BME280;65395;53.168;18.156;2023-02-23T00:53:53;101414.33;;;-1.58;69.00
76553;BME280;65395;53.168;18.156;2023-02-23T00:56:21;101415.69;;;-1.58;69.14
76553;BME280;65395;53.168;18.156;2023-02-23T00:58:48;101411.62;;;-1.57;69.18
76553;BME280;65395;53.168;18.156;2023-02-23T01:01:16;101398.40;;;-1.62;69.34
76553;BME280;65395;53.168;18.156;2023-02-23T01:03:43;101405.24;;;-1.54;69.30
76553;BME280;65395;53.168;18.156;2023-02-23T01:06:13;101398.45;;;-1.53;69.20
76553;BME280;65395;53.168;18.156;2023-02-23T01:08:42;101401.47;;;-1.55;69.24
76553;BME280;65395;53.168;18.156;2023-02-23T01:11:12;101405.85;;;-1.53;69.47
76553;BME280;65395;53.168;18.156;2023-02-23T01:13:42;101401.95;;;-1.54;69.40
76553;BME280;65395;53.168;18.156;2023-02-23T01:16:12;101397.09;;;-1.55;69.53
76553;BME280;65395;53.168;18.156;2023-02-23T01:18:40;101398.66;;;-1.58;69.78
76553;BME280;65395;53.168;18.156;2023-02-23T01:21:17;101401.02;;;-1.59;69.74
76553;BME280;65395;53.168;18.156;2023-02-23T01:23:46;101401.61;;;-1.61;69.71
76553;BME280;65395;53.168;18.156;2023-02-23T01:28:57;101400.71;;;-1.68;69.85
76553;BME280;65395;53.168;18.156;2023-02-23T01:31:27;101400.27;;;-1.70;69.99
76553;BME280;65395;53.168;18.156;2023-02-23T01:33:56;101397.19;;;-1.71;70.05
76553;BME280;65395;53.168;18.156;2023-02-23T01:36:24;101394.33;;;-1.72;70.11
76553;BME280;65395;53.168;18.156;2023-02-23T01:38:51;101396.46;;;-1.72;70.23
76553;BME280;65395;53.168;18.156;2023-02-23T01:41:23;101395.33;;;-1.72;70.23
76553;BME280;65395;53.168;18.156;2023-02-23T01:43:57;101390.09;;;-1.70;70.26
76553;BME280;65395;53.168;18.156;2023-02-23T01:46:25;101388.13;;;-1.68;70.28
76553;BME280;65395;53.168;18.156;2023-02-23T01:48:53;101385.23;;;-1.65;70.41
76553;BME280;65395;53.168;18.156;2023-02-23T01:51:28;101383.22;;;-1.64;70.40
76553;BME280;65395;53.168;18.156;2023-02-23T01:54:03;101381.86;;;-1.64;70.33
76553;BME280;65395;53.168;18.156;2023-02-23T01:56:35;101379.30;;;-1.66;70.40
76553;BME280;65395;53.168;18.156;2023-02-23T01:59:11;101375.66;;;-1.69;70.44
76553;BME280;65395;53.168;18.156;2023-02-23T02:01:41;101370.52;;;-1.72;70.49
76553;BME280;65395;53.168;18.156;2023-02-23T02:04:09;101367.83;;;-1.75;70.51
76553;BME280;65395;53.168;18.156;2023-02-23T02:06:43;101364.14;;;-1.80;70.51
76553;BME280;65395;53.168;18.156;2023-02-23T02:09:14;101362.35;;;-1.84;70.70
76553;BME280;65395;53.168;18.156;2023-02-23T02:11:43;101360.96;;;-1.86;70.79
76553;BME280;65395;53.168;18.156;2023-02-23T02:14:16;101355.91;;;-1.88;70.98
76553;BME280;65395;53.168;18.156;2023-02-23T02:17:10;101357.27;;;-1.90;70.93
76553;BME280;65395;53.168;18.156;2023-02-23T02:20:06;101354.70;;;-1.90;71.01
76553;BME280;65395;53.168;18.156;2023-02-23T02:23:05;101352.73;;;-1.88;71.07
76553;BME280;65395;53.168;18.156;2023-02-23T02:28:46;101351.32;;;-1.79;71.17
76553;BME280;65395;53.168;18.156;2023-02-23T02:31:43;101348.89;;;-1.75;71.11
76553;BME280;65395;53.168;18.156;2023-02-23T02:34:33;101348.95;;;-1.73;71.00
76553;BME280;65395;53.168;18.156;2023-02-23T02:37:35;101350.23;;;-1.73;71.06
76553;BME280;65395;53.168;18.156;2023-02-23T02:40:24;101349.65;;;-1.74;71.05
76553;BME280;65395;53.168;18.156;2023-02-23T02:43:06;101346.80;;;-1.78;71.10
76553;BME280;65395;53.168;18.156;2023-02-23T02:45:50;101348.17;;;-1.81;71.10
76553;BME280;65395;53.168;18.156;2023-02-23T02:48:32;101346.84;;;-1.83;71.22
76553;BME280;65395;53.168;18.156;2023-02-23T02:51:07;101344.95;;;-1.86;71.37
76553;BME280;65395;53.168;18.156;2023-02-23T02:53:56;101345.38;;;-1.88;71.32
76553;BME280;65395;53.168;18.156;2023-02-23T02:56:27;101345.39;;;-1.91;71.41
76553;BME280;65395;53.168;18.156;2023-02-23T02:58:54;101346.61;;;-1.93;71.34
76553;BME280;65395;53.168;18.156;2023-02-23T03:01:21;101345.77;;;-1.94;71.40
76553;BME280;65395;53.168;18.156;2023-02-23T03:04:01;101339.77;;;-1.94;71.49
76553;BME280;65395;53.168;18.156;2023-02-23T03:06:46;101338.79;;;-1.97;71.37
76553;BME280;65395;53.168;18.156;2023-02-23T03:12:31;101346.55;;;-1.90;71.44
76553;BME280;65395;53.168;18.156;2023-02-23T03:15:23;101344.11;;;-1.88;71.49
76553;BME280;65395;53.168;18.156;2023-02-23T03:21:15;101341.27;;;-1.84;71.44
76553;BME280;65395;53.168;18.156;2023-02-23T03:26:56;101337.39;;;-1.88;71.45
76553;BME280;65395;53.168;18.156;2023-02-23T03:29:40;101333.05;;;-1.89;71.53
76553;BME280;65395;53.168;18.156;2023-02-23T03:32:30;101333.16;;;-1.90;71.61
76553;BME280;65395;53.168;18.156;2023-02-23T03:35:18;101332.61;;;-1.94;71.54
76553;BME280;65395;53.168;18.156;2023-02-23T03:38:07;101331.42;;;-1.94;71.62
76553;BME280;65395;53.168;18.156;2023-02-23T03:40:46;101329.61;;;-1.96;71.68
76553;BME280;65395;53.168;18.156;2023-02-23T03:43:30;101329.35;;;-1.98;71.66
76553;BME280;65395;53.168;18.156;2023-02-23T03:46:11;101325.14;;;-1.97;71.66
76553;BME280;65395;53.168;18.156;2023-02-23T03:48:49;101324.65;;;-1.96;71.62
76553;BME280;65395;53.168;18.156;2023-02-23T03:51:28;101325.29;;;-1.94;71.71
76553;BME280;65395;53.168;18.156;2023-02-23T03:54:15;101324.21;;;-1.90;71.58
76553;BME280;65395;53.168;18.156;2023-02-23T03:56:56;101320.37;;;-1.84;71.47
76553;BME280;65395;53.168;18.156;2023-02-23T03:59:39;101315.71;;;-1.78;71.54
76553;BME280;65395;53.168;18.156;2023-02-23T04:02:21;101317.08;;;-1.73;71.32
76553;BME280;65395;53.168;18.156;2023-02-23T04:05:02;101311.05;;;-1.70;71.30
76553;BME280;65395;53.168;18.156;2023-02-23T04:07:41;101311.88;;;-1.68;71.23
76553;BME280;65395;53.168;18.156;2023-02-23T04:10:21;101307.32;;;-1.68;71.23
76553;BME280;65395;53.168;18.156;2023-02-23T04:13:04;101304.38;;;-1.68;71.17
76553;BME280;65395;53.168;18.156;2023-02-23T04:18:29;101295.21;;;-1.70;71.08
76553;BME280;65395;53.168;18.156;2023-02-23T04:20:57;101290.46;;;-1.72;71.01
76553;BME280;65395;53.168;18.156;2023-02-23T04:23:26;101293.14;;;-1.73;71.06
76553;BME280;65395;53.168;18.156;2023-02-23T04:25:54;101290.94;;;-1.74;71.14
76553;BME280;65395;53.168;18.156;2023-02-23T04:28:23;101288.19;;;-1.77;71.08
76553;BME280;65395;53.168;18.156;2023-02-23T04:30:50;101287.56;;;-1.79;71.10
76553;BME280;65395;53.168;18.156;2023-02-23T04:33:19;101286.88;;;-1.81;71.13
76553;BME280;65395;53.168;18.156;2023-02-23T04:35:47;101285.88;;;-1.81;71.08
76553;BME280;65395;53.168;18.156;2023-02-23T04:38:14;101283.95;;;-1.81;70.94
76553;BME280;65395;53.168;18.156;2023-02-23T04:40:41;101277.75;;;-1.79;70.92
76553;BME280;65395;53.168;18.156;2023-02-23T04:43:11;101276.40;;;-1.78;70.91
76553;BME280;65395;53.168;18.156;2023-02-23T04:45:38;101275.17;;;-1.78;70.91
76553;BME280;65395;53.168;18.156;2023-02-23T04:48:06;101273.70;;;-1.77;70.98
76553;BME280;65395;53.168;18.156;2023-02-23T04:50:33;101273.00;;;-1.76;70.77
76553;BME280;65395;53.168;18.156;2023-02-23T04:52:59;101271.84;;;-1.76;70.77
76553;BME280;65395;53.168;18.156;2023-02-23T04:55:26;101272.17;;;-1.77;70.70
76553;BME280;65395;53.168;18.156;2023-02-23T04:57:58;101268.45;;;-1.78;70.83
76553;BME280;65395;53.168;18.156;2023-02-23T05:00:26;101269.09;;;-1.79;70.77
76553;BME280;65395;53.168;18.156;2023-02-23T05:02:55;101266.02;;;-1.80;70.83
76553;BME280;65395;53.168;18.156;2023-02-23T05:05:21;101263.58;;;-1.82;70.84
76553;BME280;65395;53.168;18.156;2023-02-23T05:07:48;101261.19;;;-1.83;70.80
76553;BME280;65395;53.168;18.156;2023-02-23T05:10:15;101258.59;;;-1.84;70.90
76553;BME280;65395;53.168;18.156;2023-02-23T05:12:41;101253.81;;;-1.86;70.95
76553;BME280;65395;53.168;18.156;2023-02-23T05:15:09;101252.29;;;-1.86;70.91
76553;BME280;65395;53.168;18.156;2023-02-23T05:17:38;101250.95;;;-1.87;70.91
76553;BME280;65395;53.168;18.156;2023-02-23T05:20:09;101247.79;;;-1.86;70.87
76553;BME280;65395;53.168;18.156;2023-02-23T05:22:36;101245.89;;;-1.83;70.82
76553;BME280;65395;53.168;18.156;2023-02-23T05:25:04;101246.73;;;-1.79;70.83
76553;BME280;65395;53.168;18.156;2023-02-23T05:27:31;101248.25;;;-1.75;70.87
76553;BME280;65395;53.168;18.156;2023-02-23T05:29:59;101246.20;;;-1.69;70.78
76553;BME280;65395;53.168;18.156;2023-02-23T05:32:27;101242.92;;;-1.67;70.78
76553;BME280;65395;53.168;18.156;2023-02-23T05:34:54;101243.90;;;-1.65;70.66
76553;BME280;65395;53.168;18.156;2023-02-23T05:37:21;101239.64;;;-1.64;70.57
76553;BME280;65395;53.168;18.156;2023-02-23T05:39:48;101239.13;;;-1.64;70.61
76553;BME280;65395;53.168;18.156;2023-02-23T05:42:15;101234.86;;;-1.64;70.64
76553;BME280;65395;53.168;18.156;2023-02-23T05:44:42;101236.41;;;-1.66;70.60
76553;BME280;65395;53.168;18.156;2023-02-23T05:47:08;101234.80;;;-1.68;70.61
76553;BME280;65395;53.168;18.156;2023-02-23T05:49:36;101233.05;;;-1.69;70.65
76553;BME280;65395;53.168;18.156;2023-02-23T05:52:04;101228.42;;;-1.71;70.73
76553;BME280;65395;53.168;18.156;2023-02-23T05:54:31;101228.02;;;-1.72;70.63
76553;BME280;65395;53.168;18.156;2023-02-23T05:56:58;101227.63;;;-1.72;70.67
76553;BME280;65395;53.168;18.156;2023-02-23T05:59:25;101229.58;;;-1.73;70.70
76553;BME280;65395;53.168;18.156;2023-02-23T06:01:52;101227.73;;;-1.72;70.55
76553;BME280;65395;53.168;18.156;2023-02-23T06:04:19;101230.41;;;-1.70;70.61
76553;BME280;65395;53.168;18.156;2023-02-23T06:06:47;101226.05;;;-1.68;70.60
76553;BME280;65395;53.168;18.156;2023-02-23T06:09:13;101220.77;;;-1.66;70.49
76553;BME280;65395;53.168;18.156;2023-02-23T06:11:40;101220.88;;;-1.64;70.57
76553;BME280;65395;53.168;18.156;2023-02-23T06:14:06;101218.45;;;-1.60;70.49
76553;BME280;65395;53.168;18.156;2023-02-23T06:16:33;101219.29;;;-1.55;70.34
76553;BME280;65395;53.168;18.156;2023-02-23T06:19:00;101221.14;;;-1.51;70.31
76553;BME280;65395;53.168;18.156;2023-02-23T06:21:26;101218.65;;;-1.48;70.27
76553;BME280;65395;53.168;18.156;2023-02-23T06:23:53;101219.77;;;-1.44;70.22
76553;BME280;65395;53.168;18.156;2023-02-23T06:26:20;101219.30;;;-1.42;70.17
76553;BME280;65395;53.168;18.156;2023-02-23T06:28:47;101217.27;;;-1.40;70.13
76553;BME280;65395;53.168;18.156;2023-02-23T06:31:13;101215.58;;;-1.37;70.13
76553;BME280;65395;53.168;18.156;2023-02-23T06:33:41;101217.88;;;-1.35;70.09
76553;BME280;65395;53.168;18.156;2023-02-23T06:36:08;101215.77;;;-1.32;70.18
76553;BME280;65395;53.168;18.156;2023-02-23T06:38:38;101220.91;;;-1.30;69.95
76553;BME280;65395;53.168;18.156;2023-02-23T06:41:09;101220.27;;;-1.28;69.92
76553;BME280;65395;53.168;18.156;2023-02-23T06:43:36;101218.11;;;-1.24;69.99
76553;BME280;65395;53.168;18.156;2023-02-23T06:46:03;101222.29;;;-1.21;70.01
76553;BME280;65395;53.168;18.156;2023-02-23T06:48:32;101220.12;;;-1.16;69.97
76553;BME280;65395;53.168;18.156;2023-02-23T06:50:59;101215.04;;;-1.12;69.85
76553;BME280;65395;53.168;18.156;2023-02-23T06:53:26;101216.98;;;-1.05;69.69
76553;BME280;65395;53.168;18.156;2023-02-23T06:55:52;101211.96;;;-1.00;69.45
76553;BME280;65395;53.168;18.156;2023-02-23T06:58:19;101209.74;;;-0.95;69.49
76553;BME280;65395;53.168;18.156;2023-02-23T07:00:46;101211.88;;;-0.87;69.44
76553;BME280;65395;53.168;18.156;2023-02-23T07:03:13;101214.59;;;-0.82;69.38
76553;BME280;65395;53.168;18.156;2023-02-23T07:05:39;101213.23;;;-0.74;69.32
76553;BME280;65395;53.168;18.156;2023-02-23T07:08:07;101202.79;;;-0.67;69.24
76553;BME280;65395;53.168;18.156;2023-02-23T07:10:33;101208.34;;;-0.60;69.23
76553;BME280;65395;53.168;18.156;2023-02-23T07:13:00;101205.91;;;-0.53;68.92
76553;BME280;65395;53.168;18.156;2023-02-23T07:15:27;101207.89;;;-0.48;68.70
76553;BME280;65395;53.168;18.156;2023-02-23T07:17:54;101204.20;;;-0.45;68.64
76553;BME280;65395;53.168;18.156;2023-02-23T07:20:22;101201.84;;;-0.41;68.87
76553;BME280;65395;53.168;18.156;2023-02-23T07:22:49;101204.35;;;-0.35;68.61
76553;BME280;65395;53.168;18.156;2023-02-23T07:25:16;101198.23;;;-0.30;68.49
76553;BME280;65395;53.168;18.156;2023-02-23T07:27:43;101195.43;;;-0.26;68.66
76553;BME280;65395;53.168;18.156;2023-02-23T07:30:11;101194.91;;;-0.21;68.56
76553;BME280;65395;53.168;18.156;2023-02-23T07:32:38;101188.21;;;-0.17;68.27
76553;BME280;65395;53.168;18.156;2023-02-23T07:35:05;101184.25;;;-0.14;68.34
76553;BME280;65395;53.168;18.156;2023-02-23T07:37:32;101187.13;;;-0.09;68.41
76553;BME280;65395;53.168;18.156;2023-02-23T07:39:59;101187.91;;;-0.04;68.40
76553;BME280;65395;53.168;18.156;2023-02-23T07:42:26;101184.52;;;0.03;68.42
76553;BME280;65395;53.168;18.156;2023-02-23T07:44:53;101185.14;;;0.07;67.75
76553;BME280;65395;53.168;18.156;2023-02-23T07:47:19;101183.09;;;0.10;67.88
76553;BME280;65395;53.168;18.156;2023-02-23T07:49:48;101179.38;;;0.13;67.77
76553;BME280;65395;53.168;18.156;2023-02-23T07:52:16;101173.27;;;0.17;67.73
76553;BME280;65395;53.168;18.156;2023-02-23T07:54:44;101174.61;;;0.22;67.49
76553;BME280;65395;53.168;18.156;2023-02-23T07:57:11;101173.88;;;0.26;67.71
76553;BME280;65395;53.168;18.156;2023-02-23T07:59:38;101172.62;;;0.33;67.82
76553;BME280;65395;53.168;18.156;2023-02-23T08:02:05;101167.09;;;0.41;67.55
76553;BME280;65395;53.168;18.156;2023-02-23T08:04:32;101163.20;;;0.44;67.28
76553;BME280;65395;53.168;18.156;2023-02-23T08:06:59;101161.84;;;0.48;67.36
76553;BME280;65395;53.168;18.156;2023-02-23T08:09:26;101159.10;;;0.52;67.50
76553;BME280;65395;53.168;18.156;2023-02-23T08:11:53;101154.67;;;0.59;67.49
76553;BME280;65395;53.168;18.156;2023-02-23T08:14:20;101150.61;;;0.65;67.48
76553;BME280;65395;53.168;18.156;2023-02-23T08:16:49;101147.80;;;0.70;67.43
76553;BME280;65395;53.168;18.156;2023-02-23T08:19:16;101150.28;;;0.76;67.39
76553;BME280;65395;53.168;18.156;2023-02-23T08:21:42;101146.02;;;0.83;67.02
76553;BME280;65395;53.168;18.156;2023-02-23T08:24:09;101143.27;;;0.86;67.21
76553;BME280;65395;53.168;18.156;2023-02-23T08:26:36;101140.73;;;0.91;67.07
76553;BME280;65395;53.168;18.156;2023-02-23T08:29:04;101140.98;;;0.95;66.81
76553;BME280;65395;53.168;18.156;2023-02-23T08:31:31;101141.88;;;0.99;66.73
76553;BME280;65395;53.168;18.156;2023-02-23T08:33:58;101137.35;;;1.01;66.62
76553;BME280;65395;53.168;18.156;2023-02-23T08:36:25;101140.73;;;1.03;66.66
76553;BME280;65395;53.168;18.156;2023-02-23T08:38:52;101139.55;;;1.07;66.74
76553;BME280;65395;53.168;18.156;2023-02-23T08:41:21;101135.88;;;1.10;66.44
76553;BME280;65395;53.168;18.156;2023-02-23T08:43:48;101129.94;;;1.15;66.45
76553;BME280;65395;53.168;18.156;2023-02-23T08:46:15;101129.12;;;1.18;66.55
76553;BME280;65395;53.168;18.156;2023-02-23T08:48:44;101127.19;;;1.24;66.55
76553;BME280;65395;53.168;18.156;2023-02-23T08:51:12;101125.81;;;1.32;66.61
76553;BME280;65395;53.168;18.156;2023-02-23T08:53:41;101126.15;;;1.39;66.49
76553;BME280;65395;53.168;18.156;2023-02-23T08:56:09;101123.92;;;1.47;66.44
76553;BME280;65395;53.168;18.156;2023-02-23T08:58:36;101119.66;;;1.54;66.17
76553;BME280;65395;53.168;18.156;2023-02-23T09:01:04;101120.09;;;1.60;65.89
76553;BME280;65395;53.168;18.156;2023-02-23T09:03:32;101113.36;;;1.66;65.77
76553;BME280;65395;53.168;18.156;2023-02-23T09:06:08;101111.20;;;1.70;65.58
76553;BME280;65395;53.168;18.156;2023-02-23T09:08:35;101107.11;;;1.75;65.81
76553;BME280;65395;53.168;18.156;2023-02-23T09:11:02;101095.86;;;1.79;65.78
76553;BME280;65395;53.168;18.156;2023-02-23T09:13:29;101096.41;;;1.85;65.73
76553;BME280;65395;53.168;18.156;2023-02-23T09:15:56;101095.45;;;1.90;65.73
76553;BME280;65395;53.168;18.156;2023-02-23T09:18:23;101091.48;;;1.96;65.57
76553;BME280;65395;53.168;18.156;2023-02-23T09:20:53;101090.70;;;2.02;65.86
76553;BME280;65395;53.168;18.156;2023-02-23T09:23:20;101091.88;;;2.10;65.75
76553;BME280;65395;53.168;18.156;2023-02-23T09:25:47;101088.84;;;2.19;65.49
76553;BME280;65395;53.168;18.156;2023-02-23T09:28:16;101085.23;;;2.28;65.66
76553;BME280;65395;53.168;18.156;2023-02-23T09:30:43;101081.96;;;2.36;65.54
76553;BME280;65395;53.168;18.156;2023-02-23T09:33:11;101075.23;;;2.43;64.88
76553;BME280;65395;53.168;18.156;2023-02-23T09:35:39;101074.35;;;2.48;64.67
76553;BME280;65395;53.168;18.156;2023-02-23T09:38:07;101073.57;;;2.52;64.40
76553;BME280;65395;53.168;18.156;2023-02-23T09:40:45;101072.42;;;2.56;64.73
76553;BME280;65395;53.168;18.156;2023-02-23T09:43:19;101069.80;;;2.61;64.57
76553;BME280;65395;53.168;18.156;2023-02-23T09:46:01;101063.20;;;2.66;64.80
76553;BME280;65395;53.168;18.156;2023-02-23T09:48:29;101062.23;;;2.72;64.83
76553;BME280;65395;53.168;18.156;2023-02-23T09:50:57;101061.02;;;2.78;64.63
76553;BME280;65395;53.168;18.156;2023-02-23T09:53:34;101059.03;;;2.82;64.62
76553;BME280;65395;53.168;18.156;2023-02-23T09:56:17;101064.73;;;2.87;64.77
76553;BME280;65395;53.168;18.156;2023-02-23T09:58:47;101065.41;;;2.96;64.80
76553;BME280;65395;53.168;18.156;2023-02-23T10:01:42;101063.23;;;3.03;64.57
76553;BME280;65395;53.168;18.156;2023-02-23T10:04:20;101066.70;;;3.11;64.52
76553;BME280;65395;53.168;18.156;2023-02-23T10:06:57;101061.98;;;3.18;64.40
76553;BME280;65395;53.168;18.156;2023-02-23T10:09:43;101064.38;;;3.26;64.36
76553;BME280;65395;53.168;18.156;2023-02-23T10:12:26;101062.56;;;3.33;63.94
76553;BME280;65395;53.168;18.156;2023-02-23T10:15:05;101060.73;;;3.39;63.91
76553;BME280;65395;53.168;18.156;2023-02-23T10:17:52;101063.22;;;3.46;63.85
76553;BME280;65395;53.168;18.156;2023-02-23T10:20:28;101064.89;;;3.53;63.83
76553;BME280;65395;53.168;18.156;2023-02-23T10:23:10;101061.64;;;3.60;64.04
76553;BME280;65395;53.168;18.156;2023-02-23T10:25:44;101059.02;;;3.69;63.82
76553;BME280;65395;53.168;18.156;2023-02-23T10:28:15;101054.54;;;3.79;63.81
76553;BME280;65395;53.168;18.156;2023-02-23T10:30:43;101052.45;;;3.90;63.56
76553;BME280;65395;53.168;18.156;2023-02-23T10:33:15;101044.53;;;3.98;63.45
76553;BME280;65395;53.168;18.156;2023-02-23T10:35:46;101038.77;;;4.07;63.18
76553;BME280;65395;53.168;18.156;2023-02-23T10:38:15;101036.60;;;4.15;63.11
76553;BME280;65395;53.168;18.156;2023-02-23T10:40:44;101038.27;;;4.22;62.91
76553;BME280;65395;53.168;18.156;2023-02-23T10:43:12;101035.27;;;4.27;62.76
76553;BME280;65395;53.168;18.156;2023-02-23T10:45:45;101032.54;;;4.32;62.69
76553;BME280;65395;53.168;18.156;2023-02-23T10:48:20;101035.56;;;4.40;62.60
76553;BME280;65395;53.168;18.156;2023-02-23T10:50:51;101032.83;;;4.48;62.56
76553;BME280;65395;53.168;18.156;2023-02-23T10:53:26;101027.45;;;4.57;62.47
76553;BME280;65395;53.168;18.156;2023-02-23T10:56:06;101022.88;;;4.65;62.15
76553;BME280;65395;53.168;18.156;2023-02-23T10:58:43;101020.90;;;4.75;62.39
76553;BME280;65395;53.168;18.156;2023-02-23T11:01:14;101016.46;;;4.85;62.01
76553;BME280;65395;53.168;18.156;2023-02-23T11:03:45;101018.40;;;4.92;61.53
76553;BME280;65395;53.168;18.156;2023-02-23T11:06:27;101013.20;;;4.97;61.77
76553;BME280;65395;53.168;18.156;2023-02-23T11:08:55;101011.24;;;5.06;61.53
76553;BME280;65395;53.168;18.156;2023-02-23T11:11:25;101007.86;;;5.14;61.61
76553;BME280;65395;53.168;18.156;2023-02-23T11:13:55;101006.05;;;5.23;61.48
76553;BME280;65395;53.168;18.156;2023-02-23T11:16:27;101002.96;;;5.30;61.00
76553;BME280;65395;53.168;18.156;2023-02-23T11:18:58;100998.48;;;5.39;60.99
76553;BME280;65395;53.168;18.156;2023-02-23T11:21:29;100994.73;;;5.48;60.90
76553;BME280;65395;53.168;18.156;2023-02-23T11:24:17;100993.10;;;5.60;60.74
76553;BME280;65395;53.168;18.156;2023-02-23T11:26:47;100984.91;;;5.71;60.42
76553;BME280;65395;53.168;18.156;2023-02-23T11:29:30;100983.33;;;5.79;59.94
76553;BME280;65395;53.168;18.156;2023-02-23T11:31:59;100981.61;;;5.84;60.13
76553;BME280;65395;53.168;18.156;2023-02-23T11:34:32;100974.23;;;5.92;60.06
76553;BME280;65395;53.168;18.156;2023-02-23T11:37:04;100974.45;;;6.03;60.20
76553;BME280;65395;53.168;18.156;2023-02-23T11:39:32;100966.59;;;6.17;59.93
76553;BME280;65395;53.168;18.156;2023-02-23T11:42:17;100963.55;;;6.29;59.41
76553;BME280;65395;53.168;18.156;2023-02-23T11:45:05;100956.57;;;6.39;58.85
76553;BME280;65395;53.168;18.156;2023-02-23T11:47:37;100950.15;;;6.48;58.96
76553;BME280;65395;53.168;18.156;2023-02-23T11:50:05;100945.45;;;6.58;59.08
76553;BME280;65395;53.168;18.156;2023-02-23T11:52:33;100943.05;;;6.72;58.71
76553;BME280;65395;53.168;18.156;2023-02-23T11:55:05;100940.02;;;6.84;58.57
76553;BME280;65395;53.168;18.156;2023-02-23T11:57:34;100936.76;;;6.98;58.80
76553;BME280;65395;53.168;18.156;2023-02-23T12:00:10;100927.86;;;7.12;57.96
76553;BME280;65395;53.168;18.156;2023-02-23T12:02:57;100923.20;;;7.22;58.13
76553;BME280;65395;53.168;18.156;2023-02-23T12:05:28;100924.45;;;7.35;57.77
76553;BME280;65395;53.168;18.156;2023-02-23T12:08:03;100920.15;;;7.46;57.84
76553;BME280;65395;53.168;18.156;2023-02-23T12:10:41;100917.13;;;7.58;57.50
76553;BME280;65395;53.168;18.156;2023-02-23T12:13:30;100908.72;;;7.73;57.32
76553;BME280;65395;53.168;18.156;2023-02-23T12:16:04;100902.66;;;7.90;56.90
76553;BME280;65395;53.168;18.156;2023-02-23T12:18:45;100898.06;;;8.07;56.90
76553;BME280;65395;53.168;18.156;2023-02-23T12:21:50;100890.05;;;8.27;55.79
76553;BME280;65395;53.168;18.156;2023-02-23T12:24:37;100890.58;;;8.40;55.64
76553;BME280;65395;53.168;18.156;2023-02-23T12:27:14;100888.10;;;8.53;55.35
76553;BME280;65395;53.168;18.156;2023-02-23T12:30:05;100882.83;;;8.68;55.72
76553;BME280;65395;53.168;18.156;2023-02-23T12:35:24;100872.45;;;8.93;55.06
76553;BME280;65395;53.168;18.156;2023-02-23T12:38:03;100866.36;;;9.01;54.71
76553;BME280;65395;53.168;18.156;2023-02-23T12:40:36;100861.46;;;9.04;54.54
76553;BME280;65395;53.168;18.156;2023-02-23T12:43:18;100853.63;;;9.06;54.76
76553;BME280;65395;53.168;18.156;2023-02-23T12:45:51;100848.06;;;9.15;54.70
76553;BME280;65395;53.168;18.156;2023-02-23T12:48:42;100842.84;;;9.27;54.34
76553;BME280;65395;53.168;18.156;2023-02-23T12:51:19;100834.45;;;9.34;53.85
76553;BME280;65395;53.168;18.156;2023-02-23T12:53:48;100834.05;;;9.39;53.67
76553;BME280;65395;53.168;18.156;2023-02-23T12:56:32;100831.25;;;9.41;53.62
76553;BME280;65395;53.168;18.156;2023-02-23T13:01:56;100819.46;;;9.48;53.55
76553;BME280;65395;53.168;18.156;2023-02-23T13:04:43;100813.02;;;9.51;53.01
76553;BME280;65395;53.168;18.156;2023-02-23T13:07:23;100804.90;;;9.54;53.14
76553;BME280;65395;53.168;18.156;2023-02-23T13:12:54;100797.82;;;9.58;52.54
76553;BME280;65395;53.168;18.156;2023-02-23T13:18:26;100788.65;;;9.37;53.06
76553;BME280;65395;53.168;18.156;2023-02-23T13:21:02;100786.10;;;9.32;53.14
76553;BME280;65395;53.168;18.156;2023-02-23T13:24:00;100776.00;;;9.24;53.25
76553;BME280;65395;53.168;18.156;2023-02-23T13:29:37;100765.21;;;9.07;53.32
76553;BME280;65395;53.168;18.156;2023-02-23T13:32:12;100762.80;;;8.96;53.19
76553;BME280;65395;53.168;18.156;2023-02-23T13:34:44;100763.86;;;8.81;53.34
76553;BME280;65395;53.168;18.156;2023-02-23T13:37:14;100758.45;;;8.68;53.84
76553;BME280;65395;53.168;18.156;2023-02-23T13:39:58;100752.14;;;8.60;53.71
76553;BME280;65395;53.168;18.156;2023-02-23T13:42:44;100751.04;;;8.47;53.97
76553;BME280;65395;53.168;18.156;2023-02-23T13:45:39;100745.23;;;8.36;54.18